sensor_id;sensor_type;location;lat;lon;timestamp;pressure;altitude;pressure_sealevel;temperature;humidity
55171;BME280;41060;47.510;8.680;2023-12-14T00:00:54;96119.56;;;8.93;57.48
55171;BME280;41060;47.510;8.680;2023-12-14T00:03:24;96124.38;;;8.78;57.04
55171;BME280;41060;47.510;8.680;2023-12-14T00:05:50;96118.09;;;8.69;57.29
55171;BME280;41060;47.510;8.680;2023-12-14T00:08:18;96128.06;;;8.47;57.80
55171;BME280;41060;47.510;8.680;2023-12-14T00:10:46;96132.03;;;8.41;57.64
55171;BME280;41060;47.510;8.680;2023-12-14T00:13:15;96126.56;;;8.54;57.71
55171;BME280;41060;47.510;8.680;2023-12-14T00:15:42;96129.03;;;8.55;57.39
55171;BME280;41060;47.510;8.680;2023-12-14T00:18:10;96134.47;;;8.54;57.92
55171;BME280;41060;47.510;8.680;2023-12-14T00:20:37;96138.63;;;8.56;57.44
55171;BME280;41060;47.510;8.680;2023-12-14T00:23:03;96142.53;;;8.62;57.16
55171;BME280;41060;47.510;8.680;2023-12-14T00:25:32;96141.56;;;8.63;57.37
55171;BME280;41060;47.510;8.680;2023-12-14T00:27:59;96150.81;;;8.48;58.13
55171;BME280;41060;47.510;8.680;2023-12-14T00:30:26;96152.75;;;8.46;58.11
55171;BME280;41060;47.510;8.680;2023-12-14T00:32:53;96144.91;;;8.65;57.72
55171;BME280;41060;47.510;8.680;2023-12-14T00:35:20;96153.13;;;8.71;57.30
55171;BME280;41060;47.510;8.680;2023-12-14T00:37:46;96164.88;;;8.58;57.40
55171;BME280;41060;47.510;8.680;2023-12-14T00:40:15;96165.28;;;8.53;57.68
55171;BME280;41060;47.510;8.680;2023-12-14T00:42:43;96163.03;;;8.49;57.43
55171;BME280;41060;47.510;8.680;2023-12-14T00:45:10;96128.06;;;8.26;57.69
55171;BME280;41060;47.510;8.680;2023-12-14T00:47:37;96177.19;;;8.48;57.75
55171;BME280;41060;47.510;8.680;2023-12-14T00:50:04;96173.84;;;8.46;57.27
55171;BME280;41060;47.510;8.680;2023-12-14T00:52:31;96171.84;;;8.59;57.74
55171;BME280;41060;47.510;8.680;2023-12-14T00:54:58;96177.97;;;8.69;56.90
55171;BME280;41060;47.510;8.680;2023-12-14T00:57:25;96178.72;;;8.81;56.80
55171;BME280;41060;47.510;8.680;2023-12-14T00:59:53;96185.97;;;8.88;56.50
55171;BME280;41060;47.510;8.680;2023-12-14T01:02:20;96183.91;;;9.01;56.15
55171;BME280;41060;47.510;8.680;2023-12-14T01:04:47;96196.25;;;8.91;56.39
55171;BME280;41060;47.510;8.680;2023-12-14T01:07:13;96202.94;;;8.95;56.19
55171;BME280;41060;47.510;8.680;2023-12-14T01:09:40;96193.00;;;8.78;56.63
55171;BME280;41060;47.510;8.680;2023-12-14T01:12:07;96204.44;;;8.88;56.68
55171;BME280;41060;47.510;8.680;2023-12-14T01:14:34;96205.41;;;8.87;57.13
55171;BME280;41060;47.510;8.680;2023-12-14T01:17:05;96214.00;;;8.79;57.41
55171;BME280;41060;47.510;8.680;2023-12-14T01:19:33;96216.81;;;8.57;58.09
55171;BME280;41060;47.510;8.680;2023-12-14T01:22:01;96216.75;;;8.48;58.60
55171;BME280;41060;47.510;8.680;2023-12-14T01:24:27;96219.38;;;8.68;58.14
55171;BME280;41060;47.510;8.680;2023-12-14T01:26:54;96217.66;;;8.88;57.80
55171;BME280;41060;47.510;8.680;2023-12-14T01:29:21;96229.09;;;8.68;58.26
55171;BME280;41060;47.510;8.680;2023-12-14T01:31:48;96228.09;;;8.69;58.57
55171;BME280;41060;47.510;8.680;2023-12-14T01:34:16;96240.50;;;8.78;58.52
55171;BME280;41060;47.510;8.680;2023-12-14T01:36:43;96246.59;;;8.48;58.62
55171;BME280;41060;47.510;8.680;2023-12-14T01:39:09;96249.56;;;8.55;59.23
55171;BME280;41060;47.510;8.680;2023-12-14T01:41:36;96249.63;;;8.64;58.95
55171;BME280;41060;47.510;8.680;2023-12-14T01:44:03;96251.00;;;8.38;59.55
55171;BME280;41060;47.510;8.680;2023-12-14T01:46:30;96258.41;;;8.44;59.27
55171;BME280;41060;47.510;8.680;2023-12-14T01:48:57;96258.28;;;8.46;59.21
55171;BME280;41060;47.510;8.680;2023-12-14T01:51:25;96253.69;;;8.48;58.69
55171;BME280;41060;47.510;8.680;2023-12-14T01:53:52;96257.81;;;8.40;59.22
55171;BME280;41060;47.510;8.680;2023-12-14T01:56:18;96250.56;;;8.54;58.91
55171;BME280;41060;47.510;8.680;2023-12-14T01:58:45;96263.56;;;8.46;58.92
55171;BME280;41060;47.510;8.680;2023-12-14T02:01:18;96264.00;;;8.30;58.87
55171;BME280;41060;47.510;8.680;2023-12-14T02:03:49;96241.34;;;8.07;59.27
55171;BME280;41060;47.510;8.680;2023-12-14T02:06:17;96273.63;;;8.20;58.71
55171;BME280;41060;47.510;8.680;2023-12-14T02:08:45;96273.38;;;8.23;59.01
55171;BME280;41060;47.510;8.680;2023-12-14T02:11:16;96278.28;;;8.27;58.56
55171;BME280;41060;47.510;8.680;2023-12-14T02:13:43;96291.53;;;8.37;58.38
55171;BME280;41060;47.510;8.680;2023-12-14T02:16:09;96286.81;;;8.40;57.88
55171;BME280;41060;47.510;8.680;2023-12-14T02:18:37;96291.09;;;8.53;58.20
55171;BME280;41060;47.510;8.680;2023-12-14T02:21:04;96298.28;;;8.51;57.62
55171;BME280;41060;47.510;8.680;2023-12-14T02:23:32;96300.53;;;8.55;57.35
55171;BME280;41060;47.510;8.680;2023-12-14T02:25:59;96300.94;;;8.51;57.70
55171;BME280;41060;47.510;8.680;2023-12-14T02:28:26;96305.44;;;8.60;58.17
55171;BME280;41060;47.510;8.680;2023-12-14T02:30:52;96311.28;;;8.63;57.90
55171;BME280;41060;47.510;8.680;2023-12-14T02:33:22;96305.59;;;8.26;58.39
55171;BME280;41060;47.510;8.680;2023-12-14T02:35:49;96316.94;;;8.38;57.94
55171;BME280;41060;47.510;8.680;2023-12-14T02:38:15;96322.97;;;8.29;57.80
55171;BME280;41060;47.510;8.680;2023-12-14T02:40:44;96331.34;;;8.34;58.09
55171;BME280;41060;47.510;8.680;2023-12-14T02:43:10;96324.06;;;8.47;58.08
55171;BME280;41060;47.510;8.680;2023-12-14T02:45:37;96331.34;;;8.55;57.50
55171;BME280;41060;47.510;8.680;2023-12-14T02:48:04;96334.47;;;8.60;57.46
55171;BME280;41060;47.510;8.680;2023-12-14T02:50:32;96326.78;;;8.57;57.20
55171;BME280;41060;47.510;8.680;2023-12-14T02:52:59;96334.56;;;8.37;57.72
55171;BME280;41060;47.510;8.680;2023-12-14T02:55:26;96337.88;;;8.51;57.93
55171;BME280;41060;47.510;8.680;2023-12-14T02:57:54;96335.41;;;8.38;58.26
55171;BME280;41060;47.510;8.680;2023-12-14T03:00:23;96342.53;;;8.47;57.66
55171;BME280;41060;47.510;8.680;2023-12-14T03:02:51;96342.84;;;8.33;57.76
55171;BME280;41060;47.510;8.680;2023-12-14T03:05:18;96337.53;;;8.23;58.12
55171;BME280;41060;47.510;8.680;2023-12-14T03:07:45;96339.00;;;8.37;58.24
55171;BME280;41060;47.510;8.680;2023-12-14T03:10:12;96335.56;;;8.25;58.32
55171;BME280;41060;47.510;8.680;2023-12-14T03:12:39;96344.28;;;8.37;58.15
55171;BME280;41060;47.510;8.680;2023-12-14T03:15:07;96351.69;;;8.43;57.95
55171;BME280;41060;47.510;8.680;2023-12-14T03:17:34;96342.84;;;8.33;58.10
55171;BME280;41060;47.510;8.680;2023-12-14T03:20:01;96352.00;;;8.29;58.52
55171;BME280;41060;47.510;8.680;2023-12-14T03:22:33;96339.31;;;8.23;58.39
55171;BME280;41060;47.510;8.680;2023-12-14T03:25:00;96361.47;;;8.31;58.52
55171;BME280;41060;47.510;8.680;2023-12-14T03:27:27;96372.03;;;8.52;57.99
55171;BME280;41060;47.510;8.680;2023-12-14T03:29:54;96375.03;;;8.48;57.62
55171;BME280;41060;47.510;8.680;2023-12-14T03:32:22;96379.69;;;8.55;57.30
55171;BME280;41060;47.510;8.680;2023-12-14T03:34:49;96380.47;;;8.67;57.15
55171;BME280;41060;47.510;8.680;2023-12-14T03:37:15;96368.66;;;8.61;57.07
55171;BME280;41060;47.510;8.680;2023-12-14T03:39:43;96380.72;;;8.64;56.79
55171;BME280;41060;47.510;8.680;2023-12-14T03:42:09;96376.69;;;8.81;56.46
55171;BME280;41060;47.510;8.680;2023-12-14T03:44:36;96383.03;;;8.99;56.83
55171;BME280;41060;47.510;8.680;2023-12-14T03:47:03;96383.75;;;9.01;56.33
55171;BME280;41060;47.510;8.680;2023-12-14T03:49:36;96395.34;;;9.09;56.20
55171;BME280;41060;47.510;8.680;2023-12-14T03:52:04;96390.31;;;9.06;55.86
55171;BME280;41060;47.510;8.680;2023-12-14T03:54:30;96403.00;;;8.92;56.41
55171;BME280;41060;47.510;8.680;2023-12-14T03:56:57;96405.34;;;9.06;56.15
55171;BME280;41060;47.510;8.680;2023-12-14T03:59:24;96409.81;;;9.15;56.13
55171;BME280;41060;47.510;8.680;2023-12-14T04:01:51;96407.38;;;9.23;55.80
55171;BME280;41060;47.510;8.680;2023-12-14T04:04:17;96416.03;;;9.04;56.20
55171;BME280;41060;47.510;8.680;2023-12-14T04:06:46;96411.31;;;9.08;56.09
55171;BME280;41060;47.510;8.680;2023-12-14T04:09:12;96424.16;;;9.12;55.98
55171;BME280;41060;47.510;8.680;2023-12-14T04:11:39;96399.41;;;8.93;56.25
55171;BME280;41060;47.510;8.680;2023-12-14T04:14:06;96427.56;;;9.03;56.18
55171;BME280;41060;47.510;8.680;2023-12-14T04:16:34;96425.75;;;9.04;56.01
55171;BME280;41060;47.510;8.680;2023-12-14T04:19:01;96446.59;;;8.86;56.29
55171;BME280;41060;47.510;8.680;2023-12-14T04:21:28;96444.75;;;8.98;55.97
55171;BME280;41060;47.510;8.680;2023-12-14T04:23:56;96449.56;;;8.93;56.63
55171;BME280;41060;47.510;8.680;2023-12-14T04:26:23;96454.06;;;9.02;56.32
55171;BME280;41060;47.510;8.680;2023-12-14T04:28:50;96461.16;;;9.01;56.26
55171;BME280;41060;47.510;8.680;2023-12-14T04:31:17;96460.66;;;9.07;56.22
55171;BME280;41060;47.510;8.680;2023-12-14T04:33:43;96464.75;;;9.00;55.76
55171;BME280;41060;47.510;8.680;2023-12-14T04:36:11;96470.88;;;8.80;56.49
55171;BME280;41060;47.510;8.680;2023-12-14T04:38:37;96461.88;;;8.83;56.61
55171;BME280;41060;47.510;8.680;2023-12-14T04:41:05;96473.84;;;8.87;56.84
55171;BME280;41060;47.510;8.680;2023-12-14T04:43:32;96483.63;;;8.75;56.57
55171;BME280;41060;47.510;8.680;2023-12-14T04:45:59;96487.25;;;8.95;56.40
55171;BME280;41060;47.510;8.680;2023-12-14T04:48:25;96488.66;;;8.99;56.25
55171;BME280;41060;47.510;8.680;2023-12-14T04:50:53;96497.34;;;8.90;56.37
55171;BME280;41060;47.510;8.680;2023-12-14T04:53:19;96506.16;;;9.00;56.04
55171;BME280;41060;47.510;8.680;2023-12-14T04:55:46;96502.75;;;8.88;56.10
55171;BME280;41060;47.510;8.680;2023-12-14T04:58:14;96510.38;;;8.70;56.42
55171;BME280;41060;47.510;8.680;2023-12-14T05:00:41;96505.88;;;8.61;56.99
55171;BME280;41060;47.510;8.680;2023-12-14T05:03:08;96523.84;;;8.67;56.82
55171;BME280;41060;47.510;8.680;2023-12-14T05:05:35;96522.44;;;8.84;56.68
55171;BME280;41060;47.510;8.680;2023-12-14T05:08:04;96515.00;;;8.89;56.42
55171;BME280;41060;47.510;8.680;2023-12-14T05:10:31;96531.88;;;8.66;57.09
55171;BME280;41060;47.510;8.680;2023-12-14T05:12:58;96531.59;;;8.69;56.84
55171;BME280;41060;47.510;8.680;2023-12-14T05:15:26;96538.28;;;8.84;57.04
55171;BME280;41060;47.510;8.680;2023-12-14T05:17:53;96547.31;;;8.82;56.81
55171;BME280;41060;47.510;8.680;2023-12-14T05:20:20;96549.84;;;8.72;56.56
55171;BME280;41060;47.510;8.680;2023-12-14T05:22:46;96554.16;;;8.62;57.54
55171;BME280;41060;47.510;8.680;2023-12-14T05:25:13;96557.13;;;8.14;58.68
55171;BME280;41060;47.510;8.680;2023-12-14T05:27:40;96549.09;;;8.38;57.71
55171;BME280;41060;47.510;8.680;2023-12-14T05:30:10;96548.69;;;8.54;57.63
55171;BME280;41060;47.510;8.680;2023-12-14T05:32:38;96558.50;;;8.63;57.22
55171;BME280;41060;47.510;8.680;2023-12-14T05:35:06;96551.97;;;8.89;58.14
55171;BME280;41060;47.510;8.680;2023-12-14T05:37:35;96560.50;;;8.82;57.05
55171;BME280;41060;47.510;8.680;2023-12-14T05:40:02;96567.97;;;8.65;57.32
55171;BME280;41060;47.510;8.680;2023-12-14T05:42:29;96571.72;;;8.52;57.73
55171;BME280;41060;47.510;8.680;2023-12-14T05:44:56;96576.38;;;8.59;57.64
55171;BME280;41060;47.510;8.680;2023-12-14T05:47:23;96586.59;;;8.42;57.63
55171;BME280;41060;47.510;8.680;2023-12-14T05:49:52;96589.00;;;8.45;57.75
55171;BME280;41060;47.510;8.680;2023-12-14T05:52:19;96589.59;;;8.37;58.23
55171;BME280;41060;47.510;8.680;2023-12-14T05:54:45;96603.50;;;8.28;58.42
55171;BME280;41060;47.510;8.680;2023-12-14T05:57:12;96602.31;;;8.32;58.33
55171;BME280;41060;47.510;8.680;2023-12-14T05:59:39;96604.69;;;8.57;57.77
55171;BME280;41060;47.510;8.680;2023-12-14T06:02:06;96611.75;;;8.68;57.40
55171;BME280;41060;47.510;8.680;2023-12-14T06:04:33;96591.75;;;8.43;57.74
55171;BME280;41060;47.510;8.680;2023-12-14T06:07:02;96618.97;;;8.66;57.63
55171;BME280;41060;47.510;8.680;2023-12-14T06:09:28;96621.00;;;8.51;57.70
55171;BME280;41060;47.510;8.680;2023-12-14T06:12:00;96629.75;;;8.40;58.09
55171;BME280;41060;47.510;8.680;2023-12-14T06:14:27;96639.59;;;8.61;57.24
55171;BME280;41060;47.510;8.680;2023-12-14T06:16:55;96648.34;;;8.84;56.94
55171;BME280;41060;47.510;8.680;2023-12-14T06:19:22;96651.56;;;8.87;56.86
55171;BME280;41060;47.510;8.680;2023-12-14T06:21:50;96654.31;;;8.97;56.60
55171;BME280;41060;47.510;8.680;2023-12-14T06:24:20;96653.19;;;8.99;56.65
55171;BME280;41060;47.510;8.680;2023-12-14T06:26:48;96665.59;;;8.76;57.22
55171;BME280;41060;47.510;8.680;2023-12-14T06:29:15;96676.16;;;8.88;56.92
55171;BME280;41060;47.510;8.680;2023-12-14T06:31:41;96674.25;;;8.78;57.01
55171;BME280;41060;47.510;8.680;2023-12-14T06:34:09;96677.50;;;8.49;57.58
55171;BME280;41060;47.510;8.680;2023-12-14T06:36:35;96683.84;;;8.57;57.99
55171;BME280;41060;47.510;8.680;2023-12-14T06:39:02;96686.13;;;8.62;57.83
55171;BME280;41060;47.510;8.680;2023-12-14T06:41:32;96690.81;;;8.69;57.31
55171;BME280;41060;47.510;8.680;2023-12-14T06:43:58;96688.66;;;8.63;57.81
55171;BME280;41060;47.510;8.680;2023-12-14T06:46:25;96697.53;;;8.62;57.66
55171;BME280;41060;47.510;8.680;2023-12-14T06:48:52;96698.50;;;8.61;57.79
55171;BME280;41060;47.510;8.680;2023-12-14T06:51:20;96707.97;;;8.64;57.88
55171;BME280;41060;47.510;8.680;2023-12-14T06:53:47;96693.59;;;8.46;57.80
55171;BME280;41060;47.510;8.680;2023-12-14T06:56:15;96707.84;;;8.65;58.23
55171;BME280;41060;47.510;8.680;2023-12-14T06:58:44;96715.75;;;8.43;58.36
55171;BME280;41060;47.510;8.680;2023-12-14T07:01:12;96726.06;;;8.35;58.87
55171;BME280;41060;47.510;8.680;2023-12-14T07:03:40;96732.38;;;8.32;58.89
55171;BME280;41060;47.510;8.680;2023-12-14T07:06:07;96735.13;;;8.20;59.92
55171;BME280;41060;47.510;8.680;2023-12-14T07:08:33;96739.34;;;8.33;59.23
55171;BME280;41060;47.510;8.680;2023-12-14T07:11:00;96742.63;;;8.37;59.10
55171;BME280;41060;47.510;8.680;2023-12-14T07:13:27;96745.38;;;8.35;59.42
55171;BME280;41060;47.510;8.680;2023-12-14T07:15:55;96747.72;;;8.16;59.64
55171;BME280;41060;47.510;8.680;2023-12-14T07:18:22;96750.22;;;8.18;59.68
55171;BME280;41060;47.510;8.680;2023-12-14T07:20:49;96757.19;;;8.19;59.59
55171;BME280;41060;47.510;8.680;2023-12-14T07:23:16;96756.50;;;8.28;59.61
55171;BME280;41060;47.510;8.680;2023-12-14T07:25:43;96769.19;;;8.23;59.72
55171;BME280;41060;47.510;8.680;2023-12-14T07:28:09;96767.41;;;8.23;59.54
55171;BME280;41060;47.510;8.680;2023-12-14T07:30:36;96764.78;;;8.34;59.27
55171;BME280;41060;47.510;8.680;2023-12-14T07:33:04;96772.44;;;8.26;59.63
55171;BME280;41060;47.510;8.680;2023-12-14T07:35:31;96776.28;;;8.22;60.00
55171;BME280;41060;47.510;8.680;2023-12-14T07:37:58;96774.47;;;8.23;59.50
55171;BME280;41060;47.510;8.680;2023-12-14T07:40:25;96784.09;;;8.35;59.20
55171;BME280;41060;47.510;8.680;2023-12-14T07:42:51;96781.81;;;8.42;58.81
55171;BME280;41060;47.510;8.680;2023-12-14T07:45:21;96789.56;;;8.21;59.71
55171;BME280;41060;47.510;8.680;2023-12-14T07:47:48;96794.16;;;8.30;59.75
55171;BME280;41060;47.510;8.680;2023-12-14T07:50:17;96801.63;;;8.47;59.03
55171;BME280;41060;47.510;8.680;2023-12-14T07:52:44;96801.25;;;8.40;59.46
55171;BME280;41060;47.510;8.680;2023-12-14T07:55:14;96811.53;;;8.32;59.42
55171;BME280;41060;47.510;8.680;2023-12-14T07:57:41;96815.16;;;8.43;59.28
55171;BME280;41060;47.510;8.680;2023-12-14T08:00:11;96820.81;;;8.38;59.41
55171;BME280;41060;47.510;8.680;2023-12-14T08:02:39;96834.78;;;8.27;60.12
55171;BME280;41060;47.510;8.680;2023-12-14T08:05:06;96827.59;;;8.29;59.44
55171;BME280;41060;47.510;8.680;2023-12-14T08:07:34;96843.63;;;8.50;59.25
55171;BME280;41060;47.510;8.680;2023-12-14T08:10:01;96842.03;;;8.36;59.53
55171;BME280;41060;47.510;8.680;2023-12-14T08:12:28;96846.34;;;8.37;59.61
55171;BME280;41060;47.510;8.680;2023-12-14T08:14:55;96847.81;;;8.53;59.32
55171;BME280;41060;47.510;8.680;2023-12-14T08:17:22;96857.94;;;8.70;59.15
55171;BME280;41060;47.510;8.680;2023-12-14T08:19:48;96847.69;;;8.54;58.71
55171;BME280;41060;47.510;8.680;2023-12-14T08:22:16;96862.84;;;8.63;58.92
55171;BME280;41060;47.510;8.680;2023-12-14T08:24:45;96862.94;;;8.16;59.67
55171;BME280;41060;47.510;8.680;2023-12-14T08:27:11;96868.28;;;8.38;59.63
55171;BME280;41060;47.510;8.680;2023-12-14T08:29:38;96876.84;;;8.53;59.45
55171;BME280;41060;47.510;8.680;2023-12-14T08:32:06;96881.88;;;8.45;58.73
55171;BME280;41060;47.510;8.680;2023-12-14T08:34:32;96893.75;;;8.26;59.30
55171;BME280;41060;47.510;8.680;2023-12-14T08:37:00;96903.44;;;8.15;60.24
55171;BME280;41060;47.510;8.680;2023-12-14T08:39:27;96898.38;;;8.35;59.40
55171;BME280;41060;47.510;8.680;2023-12-14T08:41:55;96901.56;;;8.28;59.54
55171;BME280;41060;47.510;8.680;2023-12-14T08:44:22;96908.06;;;8.11;60.23
55171;BME280;41060;47.510;8.680;2023-12-14T08:46:49;96919.47;;;8.35;59.40
55171;BME280;41060;47.510;8.680;2023-12-14T08:49:16;96915.06;;;8.47;59.08
55171;BME280;41060;47.510;8.680;2023-12-14T08:51:42;96921.25;;;8.59;58.86
55171;BME280;41060;47.510;8.680;2023-12-14T08:54:10;96925.13;;;8.66;58.60
55171;BME280;41060;47.510;8.680;2023-12-14T08:56:36;96930.19;;;8.80;57.91
55171;BME280;41060;47.510;8.680;2023-12-14T08:59:04;96896.56;;;8.36;58.33
55171;BME280;41060;47.510;8.680;2023-12-14T09:01:31;96939.19;;;8.77;58.19
55171;BME280;41060;47.510;8.680;2023-12-14T09:03:58;96946.16;;;8.78;58.09
55171;BME280;41060;47.510;8.680;2023-12-14T09:06:25;96942.34;;;8.94;57.97
55171;BME280;41060;47.510;8.680;2023-12-14T09:08:52;96946.84;;;9.04;57.42
55171;BME280;41060;47.510;8.680;2023-12-14T09:11:19;96966.00;;;8.95;57.73
55171;BME280;41060;47.510;8.680;2023-12-14T09:13:45;96961.31;;;8.99;57.75
55171;BME280;41060;47.510;8.680;2023-12-14T09:16:14;96972.41;;;9.04;57.59
55171;BME280;41060;47.510;8.680;2023-12-14T09:18:41;96978.16;;;9.09;57.36
55171;BME280;41060;47.510;8.680;2023-12-14T09:21:07;96981.38;;;8.90;57.57
55171;BME280;41060;47.510;8.680;2023-12-14T09:23:34;96991.56;;;8.95;57.45
55171;BME280;41060;47.510;8.680;2023-12-14T09:26:01;96990.94;;;8.91;57.70
55171;BME280;41060;47.510;8.680;2023-12-14T09:28:28;97000.59;;;8.68;57.63
55171;BME280;41060;47.510;8.680;2023-12-14T09:30:55;97012.16;;;8.78;57.28
55171;BME280;41060;47.510;8.680;2023-12-14T09:33:23;97009.78;;;8.63;57.94
55171;BME280;41060;47.510;8.680;2023-12-14T09:35:49;97009.69;;;8.64;57.77
55171;BME280;41060;47.510;8.680;2023-12-14T09:38:16;97025.88;;;8.84;57.61
55171;BME280;41060;47.510;8.680;2023-12-14T09:40:44;97028.72;;;8.81;57.80
55171;BME280;41060;47.510;8.680;2023-12-14T09:43:13;97031.75;;;8.63;58.33
55171;BME280;41060;47.510;8.680;2023-12-14T09:45:41;97028.66;;;8.69;58.31
55171;BME280;41060;47.510;8.680;2023-12-14T09:48:10;97024.97;;;8.72;58.49
55171;BME280;41060;47.510;8.680;2023-12-14T09:50:40;97034.47;;;8.74;58.04
55171;BME280;41060;47.510;8.680;2023-12-14T09:53:08;97031.25;;;8.82;57.92
55171;BME280;41060;47.510;8.680;2023-12-14T09:55:35;97030.72;;;8.77;58.17
55171;BME280;41060;47.510;8.680;2023-12-14T09:58:02;97041.00;;;8.69;57.91
55171;BME280;41060;47.510;8.680;2023-12-14T10:00:33;97050.56;;;8.59;58.37
55171;BME280;41060;47.510;8.680;2023-12-14T10:03:21;97042.38;;;8.74;57.62
55171;BME280;41060;47.510;8.680;2023-12-14T10:05:50;97029.44;;;8.35;58.08
55171;BME280;41060;47.510;8.680;2023-12-14T10:08:17;97048.94;;;8.69;57.99
55171;BME280;41060;47.510;8.680;2023-12-14T10:10:45;97057.47;;;8.72;57.51
55171;BME280;41060;47.510;8.680;2023-12-14T10:13:14;97054.78;;;9.09;57.12
55171;BME280;41060;47.510;8.680;2023-12-14T10:15:41;97017.13;;;8.94;56.66
55171;BME280;41060;47.510;8.680;2023-12-14T10:18:08;97061.06;;;9.19;56.33
55171;BME280;41060;47.510;8.680;2023-12-14T10:20:36;97054.13;;;9.29;56.43
55171;BME280;41060;47.510;8.680;2023-12-14T10:23:06;97059.78;;;9.25;56.57
55171;BME280;41060;47.510;8.680;2023-12-14T10:25:36;97059.13;;;9.45;55.70
55171;BME280;41060;47.510;8.680;2023-12-14T10:28:03;97061.16;;;9.41;56.18
55171;BME280;41060;47.510;8.680;2023-12-14T10:30:30;97058.41;;;9.43;55.81
55171;BME280;41060;47.510;8.680;2023-12-14T10:32:57;97054.81;;;9.55;55.94
55171;BME280;41060;47.510;8.680;2023-12-14T10:35:24;97058.28;;;9.44;55.77
55171;BME280;41060;47.510;8.680;2023-12-14T10:37:52;97069.88;;;9.31;55.99
55171;BME280;41060;47.510;8.680;2023-12-14T10:40:23;97071.94;;;9.27;55.74
55171;BME280;41060;47.510;8.680;2023-12-14T10:42:50;97052.09;;;8.98;56.56
55171;BME280;41060;47.510;8.680;2023-12-14T10:45:17;97064.59;;;9.31;55.91
55171;BME280;41060;47.510;8.680;2023-12-14T10:47:47;97068.66;;;9.00;55.93
55171;BME280;41060;47.510;8.680;2023-12-14T10:50:14;97085.22;;;9.02;56.39
55171;BME280;41060;47.510;8.680;2023-12-14T10:52:42;97084.75;;;8.97;56.45
55171;BME280;41060;47.510;8.680;2023-12-14T10:55:22;97082.75;;;8.88;57.03
55171;BME280;41060;47.510;8.680;2023-12-14T10:57:51;97097.38;;;8.81;56.88
55171;BME280;41060;47.510;8.680;2023-12-14T11:00:19;97103.75;;;8.65;57.07
55171;BME280;41060;47.510;8.680;2023-12-14T11:02:46;97080.94;;;8.64;57.15
55171;BME280;41060;47.510;8.680;2023-12-14T11:05:15;97105.63;;;9.00;56.71
55171;BME280;41060;47.510;8.680;2023-12-14T11:07:47;97114.22;;;9.14;56.34
55171;BME280;41060;47.510;8.680;2023-12-14T11:10:14;97112.78;;;9.10;56.10
55171;BME280;41060;47.510;8.680;2023-12-14T11:13:07;97125.56;;;8.80;56.39
55171;BME280;41060;47.510;8.680;2023-12-14T11:15:37;97121.03;;;8.82;56.83
55171;BME280;41060;47.510;8.680;2023-12-14T11:18:23;97136.22;;;8.78;57.18
55171;BME280;41060;47.510;8.680;2023-12-14T11:20:55;97131.75;;;8.92;57.37
55171;BME280;41060;47.510;8.680;2023-12-14T11:23:30;97136.66;;;9.09;56.87
55171;BME280;41060;47.510;8.680;2023-12-14T11:26:00;97134.28;;;9.17;56.47
55171;BME280;41060;47.510;8.680;2023-12-14T11:28:30;97137.25;;;8.89;56.66
55171;BME280;41060;47.510;8.680;2023-12-14T11:30:58;97140.47;;;8.81;57.44
55171;BME280;41060;47.510;8.680;2023-12-14T11:33:24;97142.59;;;8.63;57.19
55171;BME280;41060;47.510;8.680;2023-12-14T11:35:54;97097.28;;;8.46;57.39
55171;BME280;41060;47.510;8.680;2023-12-14T11:38:22;97148.94;;;8.73;57.60
55171;BME280;41060;47.510;8.680;2023-12-14T11:40:50;97137.41;;;8.74;57.07
55171;BME280;41060;47.510;8.680;2023-12-14T11:43:17;97152.66;;;8.58;58.02
55171;BME280;41060;47.510;8.680;2023-12-14T11:45:48;97157.91;;;8.71;57.96
55171;BME280;41060;47.510;8.680;2023-12-14T11:48:15;97156.31;;;8.81;57.47
55171;BME280;41060;47.510;8.680;2023-12-14T11:50:42;97158.94;;;8.81;57.22
55171;BME280;41060;47.510;8.680;2023-12-14T11:53:10;97155.34;;;8.69;57.26
55171;BME280;41060;47.510;8.680;2023-12-14T11:55:38;97168.34;;;8.72;58.02
55171;BME280;41060;47.510;8.680;2023-12-14T11:58:06;97164.28;;;8.92;57.40
55171;BME280;41060;47.510;8.680;2023-12-14T12:00:34;97163.66;;;8.52;57.96
55171;BME280;41060;47.510;8.680;2023-12-14T12:03:10;97166.59;;;8.48;59.16
55171;BME280;41060;47.510;8.680;2023-12-14T12:05:42;97119.63;;;8.40;58.25
55171;BME280;41060;47.510;8.680;2023-12-14T12:08:09;97170.09;;;8.85;57.94
55171;BME280;41060;47.510;8.680;2023-12-14T12:10:37;97166.91;;;8.68;57.79
55171;BME280;41060;47.510;8.680;2023-12-14T12:13:06;97179.34;;;8.66;58.26
55171;BME280;41060;47.510;8.680;2023-12-14T12:15:34;97168.56;;;8.69;58.35
55171;BME280;41060;47.510;8.680;2023-12-14T12:18:03;97179.81;;;8.84;58.42
55171;BME280;41060;47.510;8.680;2023-12-14T12:20:32;97176.63;;;8.92;57.80
55171;BME280;41060;47.510;8.680;2023-12-14T12:23:00;97137.72;;;8.70;57.50
55171;BME280;41060;47.510;8.680;2023-12-14T12:25:27;97174.47;;;9.09;57.65
55171;BME280;41060;47.510;8.680;2023-12-14T12:27:54;97188.06;;;9.16;57.05
55171;BME280;41060;47.510;8.680;2023-12-14T12:30:22;97148.28;;;8.70;57.64
55171;BME280;41060;47.510;8.680;2023-12-14T12:32:48;97183.22;;;8.86;57.95
55171;BME280;41060;47.510;8.680;2023-12-14T12:35:17;97183.91;;;9.01;57.86
55171;BME280;41060;47.510;8.680;2023-12-14T12:37:45;97180.47;;;9.24;57.14
55171;BME280;41060;47.510;8.680;2023-12-14T12:40:12;97182.66;;;9.30;57.15
55171;BME280;41060;47.510;8.680;2023-12-14T12:42:41;97185.94;;;9.34;57.12
55171;BME280;41060;47.510;8.680;2023-12-14T12:45:09;97187.47;;;9.12;57.71
55171;BME280;41060;47.510;8.680;2023-12-14T12:47:36;97177.75;;;9.13;58.02
55171;BME280;41060;47.510;8.680;2023-12-14T12:50:05;97186.38;;;9.15;57.78
55171;BME280;41060;47.510;8.680;2023-12-14T12:52:32;97189.13;;;9.13;57.94
55171;BME280;41060;47.510;8.680;2023-12-14T12:55:02;97193.00;;;8.97;58.64
55171;BME280;41060;47.510;8.680;2023-12-14T12:57:30;97194.09;;;8.82;59.21
55171;BME280;41060;47.510;8.680;2023-12-14T12:59:56;97199.19;;;9.08;58.76
55171;BME280;41060;47.510;8.680;2023-12-14T13:02:23;97195.97;;;9.29;58.28
55171;BME280;41060;47.510;8.680;2023-12-14T13:04:50;97196.94;;;9.15;58.44
55171;BME280;41060;47.510;8.680;2023-12-14T13:07:18;97192.22;;;9.07;58.44
55171;BME280;41060;47.510;8.680;2023-12-14T13:09:45;97200.53;;;8.90;58.73
55171;BME280;41060;47.510;8.680;2023-12-14T13:12:14;97209.06;;;8.94;58.49